createdAt,value
2018-12-19T00:02:24.855Z,5.55
2018-12-19T00:04:53.122Z,6.20
2018-12-19T00:07:21.346Z,5.95
2018-12-19T00:09:49.541Z,6.25
2018-12-19T00:12:17.747Z,5.60
2018-12-19T00:14:45.953Z,6.75
2018-12-19T00:17:14.183Z,6.75
2018-12-19T00:19:42.405Z,6.45
2018-12-19T00:22:10.584Z,6.95
2018-12-19T00:24:38.870Z,9.95
2018-12-19T00:27:07.127Z,9.45
2018-12-19T00:29:35.311Z,8.30
2018-12-19T00:32:03.656Z,10.80
2018-12-19T00:34:31.900Z,10.13
2018-12-19T00:37:00.099Z,9.78
2018-12-19T00:39:28.304Z,10.10
2018-12-19T00:41:56.535Z,8.68
2018-12-19T00:44:24.736Z,8.15
2018-12-19T00:46:52.989Z,5.95
2018-12-19T00:49:21.295Z,6.35
2018-12-19T00:51:49.275Z,6.30
2018-12-19T00:54:17.218Z,6.40
2018-12-19T00:56:45.397Z,5.17
2018-12-19T00:59:13.646Z,5.05
2018-12-19T01:01:41.887Z,6.08
2018-12-19T01:04:10.143Z,6.97
2018-12-19T01:06:38.462Z,5.83
2018-12-19T01:09:07.648Z,6.30
2018-12-19T01:11:35.862Z,5.45
2018-12-19T01:14:04.060Z,6.25
2018-12-19T01:16:32.360Z,5.22
2018-12-19T01:19:00.645Z,4.80
2018-12-19T01:21:28.851Z,6.58
2018-12-19T01:23:57.131Z,7.17
2018-12-19T01:26:25.318Z,9.63
2018-12-19T01:28:53.498Z,8.35
2018-12-19T01:31:21.718Z,7.65
2018-12-19T01:33:49.899Z,8.65
2018-12-19T01:36:18.228Z,12.53
2018-12-19T01:38:46.467Z,12.13
2018-12-19T01:41:14.711Z,10.98
2018-12-19T01:43:42.887Z,9.70
2018-12-19T01:46:11.176Z,8.20
2018-12-19T01:48:39.295Z,9.45
2018-12-19T01:51:07.546Z,9.30
2018-12-19T01:53:35.724Z,8.63
2018-12-19T01:56:04.009Z,8.20
2018-12-19T01:58:32.215Z,9.50
2018-12-19T02:01:00.393Z,9.13
2018-12-19T02:03:28.615Z,9.38
2018-12-19T02:05:56.838Z,9.85
2018-12-19T02:08:25.144Z,7.85
2018-12-19T02:10:53.416Z,6.62
2018-12-19T02:13:21.623Z,8.45
2018-12-19T02:15:49.847Z,7.55
2018-12-19T02:18:18.122Z,6.37
2018-12-19T02:20:46.343Z,5.55
2018-12-19T02:23:14.539Z,6.97
2018-12-19T02:25:42.765Z,6.20
2018-12-19T02:28:10.979Z,5.80
2018-12-19T02:30:39.236Z,5.60
2018-12-19T02:33:07.508Z,5.47
2018-12-19T02:35:35.692Z,5.92
2018-12-19T02:38:03.927Z,5.12
2018-12-19T02:40:32.128Z,4.62
2018-12-19T02:43:00.402Z,4.33
2018-12-19T02:45:28.462Z,3.95
2018-12-19T02:47:56.533Z,5.37
2018-12-19T02:50:24.712Z,6.25
2018-12-19T02:52:52.896Z,6.90
2018-12-19T02:55:21.081Z,5.40
2018-12-19T02:57:49.326Z,7.05
2018-12-19T03:00:17.620Z,6.87
2018-12-19T03:02:45.881Z,6.70
2018-12-19T03:05:14.078Z,6.67
2018-12-19T03:07:42.246Z,5.55
2018-12-19T03:10:10.504Z,5.97
2018-12-19T03:12:38.681Z,5.60
2018-12-19T03:15:06.876Z,6.22
2018-12-19T03:17:35.137Z,5.60
2018-12-19T03:20:03.319Z,5.97
2018-12-19T03:22:31.521Z,5.45
2018-12-19T03:24:59.774Z,5.87
2018-12-19T03:27:27.987Z,4.83
2018-12-19T03:29:56.239Z,6.42
2018-12-19T03:32:24.512Z,7.45
2018-12-19T03:34:52.752Z,7.33
2018-12-19T03:37:21.003Z,5.80
2018-12-19T03:39:50.416Z,6.45
2018-12-19T03:42:18.540Z,6.08
2018-12-19T03:44:46.752Z,6.40
2018-12-19T03:47:14.934Z,5.40
2018-12-19T03:49:43.466Z,7.20
2018-12-19T03:52:11.714Z,5.90
2018-12-19T03:54:40.035Z,6.60
2018-12-19T03:57:09.680Z,6.70
2018-12-19T03:59:38.893Z,7.42
2018-12-19T04:02:07.086Z,6.40
2018-12-19T04:04:35.276Z,7.05
2018-12-19T04:07:03.493Z,7.65
2018-12-19T04:09:31.688Z,7.25
2018-12-19T04:11:59.872Z,6.78
2018-12-19T04:14:28.850Z,6.47
2018-12-19T04:16:57.059Z,8.10
2018-12-19T04:19:25.240Z,6.75
2018-12-19T04:21:53.572Z,7.78
2018-12-19T04:24:21.899Z,6.67
2018-12-19T04:26:50.121Z,6.60
2018-12-19T04:29:18.352Z,6.20
2018-12-19T04:31:46.595Z,6.08
2018-12-19T04:34:15.883Z,6.03
2018-12-19T04:36:44.126Z,6.42
2018-12-19T04:39:12.295Z,5.20
2018-12-19T04:41:40.241Z,5.22
2018-12-19T04:44:08.293Z,6.30
2018-12-19T04:46:36.327Z,7.05
2018-12-19T04:49:04.525Z,5.33
2018-12-19T04:51:32.788Z,6.22
2018-12-19T04:54:01.090Z,5.30
2018-12-19T04:56:29.312Z,5.20
2018-12-19T04:58:57.544Z,5.50
2018-12-19T05:01:25.792Z,5.90
2018-12-19T05:03:54.075Z,7.10
2018-12-19T05:06:22.467Z,6.55
2018-12-19T05:08:50.649Z,6.58
2018-12-19T05:11:18.819Z,6.08
2018-12-19T05:13:47.067Z,5.97
2018-12-19T05:16:15.291Z,6.10
2018-12-19T05:18:43.472Z,5.70
2018-12-19T05:21:11.684Z,6.50
2018-12-19T05:23:39.848Z,6.45
2018-12-19T05:26:08.070Z,5.72
2018-12-19T05:28:36.355Z,5.17
2018-12-19T05:31:04.519Z,5.95
2018-12-19T05:33:32.738Z,6.30
2018-12-19T05:36:00.717Z,5.70
2018-12-19T05:38:28.684Z,5.28
2018-12-19T05:40:56.859Z,5.47
2018-12-19T05:43:25.034Z,5.03
2018-12-19T05:45:53.358Z,6.15
2018-12-19T05:48:21.574Z,7.30
2018-12-19T05:50:49.814Z,6.65
2018-12-19T05:53:18.035Z,6.22
2018-12-19T05:55:46.256Z,6.78
2018-12-19T05:58:14.490Z,7.50
2018-12-19T06:00:42.680Z,8.80
2018-12-19T06:03:11.692Z,8.55
2018-12-19T06:05:39.892Z,7.37
2018-12-19T06:08:08.086Z,7.17
2018-12-19T06:10:36.288Z,7.10
2018-12-19T06:13:04.472Z,6.80
2018-12-19T06:15:32.751Z,5.70
2018-12-19T06:18:00.931Z,6.40
2018-12-19T06:20:29.134Z,6.15
2018-12-19T06:22:57.355Z,5.35
2018-12-19T06:25:25.632Z,6.00
2018-12-19T06:27:53.928Z,6.85
2018-12-19T06:30:22.483Z,5.17
2018-12-19T06:32:50.746Z,6.87
2018-12-19T06:35:18.936Z,6.45
2018-12-19T06:37:46.933Z,6.95
2018-12-19T06:40:14.858Z,7.92
2018-12-19T06:42:43.081Z,8.18
2018-12-19T06:45:11.278Z,9.50
2018-12-19T06:47:39.467Z,8.30
2018-12-19T06:50:09.057Z,8.85
2018-12-19T06:52:37.419Z,7.75
2018-12-19T06:55:06.022Z,8.35
2018-12-19T06:57:34.194Z,7.05
2018-12-19T07:00:02.416Z,8.28
2018-12-19T07:02:30.685Z,14.87
2018-12-19T07:04:58.991Z,14.53
2018-12-19T07:07:27.257Z,10.75
2018-12-19T07:09:55.445Z,8.25
2018-12-19T07:12:23.624Z,8.33
2018-12-19T07:14:51.908Z,7.42
2018-12-19T07:17:20.135Z,7.53
2018-12-19T07:19:48.336Z,10.60
2018-12-19T07:22:16.654Z,12.93
2018-12-19T07:24:44.828Z,15.58
2018-12-19T07:27:13.028Z,17.30
2018-12-19T07:29:41.240Z,15.40
2018-12-19T07:32:09.512Z,11.83
2018-12-19T07:34:44.044Z,11.20
2018-12-19T07:37:07.708Z,23.77
2018-12-19T07:39:35.635Z,14.15
2018-12-19T07:42:03.636Z,14.33
2018-12-19T07:44:31.804Z,12.20
2018-12-19T07:47:00.000Z,10.80
2018-12-19T07:49:28.252Z,12.30
2018-12-19T07:51:56.435Z,10.88
2018-12-19T07:54:24.650Z,10.88
2018-12-19T07:56:52.868Z,11.53
2018-12-19T07:59:21.099Z,10.75
2018-12-19T08:01:49.277Z,12.82
2018-12-19T08:04:17.732Z,10.80
2018-12-19T08:06:45.958Z,11.83
2018-12-19T08:09:14.149Z,10.80
2018-12-19T08:11:42.344Z,12.60
2018-12-19T08:14:10.578Z,15.15
2018-12-19T08:16:38.811Z,20.82
2018-12-19T08:19:07.002Z,41.20
2018-12-19T08:21:35.224Z,29.60
2018-12-19T08:24:03.420Z,28.60
2018-12-19T08:26:31.604Z,24.25
2018-12-19T08:28:59.906Z,21.62
2018-12-19T08:31:28.332Z,16.82
2018-12-19T08:33:56.560Z,17.48
2018-12-19T08:36:24.611Z,23.98
2018-12-19T08:38:52.539Z,24.92
2018-12-19T08:41:20.489Z,23.98
2018-12-19T08:43:48.677Z,18.10
2018-12-19T08:46:16.867Z,15.88
2018-12-19T08:48:45.170Z,20.48
2018-12-19T08:51:13.358Z,21.33
2018-12-19T08:53:41.573Z,19.60
2018-12-19T08:56:09.859Z,21.27
2018-12-19T08:58:38.039Z,18.12
2018-12-19T09:01:06.249Z,16.37
2018-12-19T09:03:34.618Z,15.65
2018-12-19T09:06:02.857Z,12.58
2018-12-19T09:08:31.060Z,13.70
2018-12-19T09:11:05.413Z,13.80
2018-12-19T09:13:29.585Z,12.88
2018-12-19T09:15:58.199Z,12.25
2018-12-19T09:18:26.400Z,15.58
2018-12-19T09:20:54.730Z,15.68
2018-12-19T09:23:22.984Z,14.95
2018-12-19T09:25:51.187Z,15.70
2018-12-19T09:28:19.388Z,13.88
2018-12-19T09:30:47.691Z,14.60
2018-12-19T09:33:15.912Z,13.93
2018-12-19T09:35:43.854Z,14.55
2018-12-19T09:38:12.052Z,16.07
2018-12-19T09:40:40.314Z,17.30
2018-12-19T09:43:08.535Z,17.75
2018-12-19T09:45:36.714Z,16.20
2018-12-19T09:48:04.989Z,15.30
2018-12-19T09:50:33.270Z,14.20
2018-12-19T09:53:01.465Z,13.30
2018-12-19T09:55:29.660Z,12.68
2018-12-19T09:57:57.923Z,11.93
2018-12-19T10:00:28.480Z,10.40
2018-12-19T10:02:56.734Z,11.00
2018-12-19T10:05:25.495Z,11.05
2018-12-19T10:07:53.814Z,9.60
2018-12-19T10:10:21.999Z,11.03
2018-12-19T10:12:50.188Z,10.40
2018-12-19T10:15:18.479Z,10.80
2018-12-19T10:17:46.672Z,11.18
2018-12-19T10:20:14.865Z,10.55
2018-12-19T10:22:43.051Z,8.30
2018-12-19T10:25:14.165Z,8.78
2018-12-19T10:27:42.440Z,8.98
2018-12-19T10:30:12.376Z,8.75
2018-12-19T10:32:40.890Z,10.98
2018-12-19T10:35:10.464Z,11.20
2018-12-19T10:37:38.699Z,9.63
2018-12-19T10:40:11.011Z,11.25
2018-12-19T10:42:39.055Z,10.45
2018-12-19T10:45:09.195Z,8.53
2018-12-19T10:47:37.423Z,10.23
2018-12-19T10:50:08.138Z,8.35
2018-12-19T10:52:36.338Z,8.80
2018-12-19T10:55:05.679Z,9.53
2018-12-19T10:57:33.889Z,9.48
2018-12-19T11:00:02.078Z,9.17
2018-12-19T11:02:30.361Z,10.93
2018-12-19T11:04:58.653Z,12.20
2018-12-19T11:07:26.847Z,12.85
2018-12-19T11:09:55.135Z,13.13
2018-12-19T11:12:23.351Z,13.93
2018-12-19T11:14:51.537Z,13.03
2018-12-19T11:17:19.727Z,11.53
2018-12-19T11:19:48.012Z,12.37
2018-12-19T11:22:16.205Z,14.30
2018-12-19T11:24:44.406Z,15.38
2018-12-19T11:27:12.658Z,16.73
2018-12-19T11:29:40.856Z,17.63
2018-12-19T11:32:09.036Z,14.98
2018-12-19T11:34:37.268Z,17.67
2018-12-19T11:37:05.476Z,18.50
2018-12-19T11:39:33.414Z,19.60
2018-12-19T11:42:01.456Z,16.00
2018-12-19T11:44:29.412Z,19.27
2018-12-19T11:46:57.704Z,15.50
2018-12-19T11:49:25.905Z,19.70
2018-12-19T11:51:54.180Z,15.60
2018-12-19T11:54:22.421Z,16.90
2018-12-19T11:56:50.652Z,15.90
2018-12-19T11:59:18.880Z,14.40
2018-12-19T12:04:21.778Z,13.93
2018-12-19T12:06:50.068Z,15.47
2018-12-19T12:09:18.253Z,14.10
2018-12-19T12:11:46.502Z,15.27
2018-12-19T12:14:14.684Z,13.37
2018-12-19T12:16:42.959Z,14.20
2018-12-19T12:19:11.135Z,14.77
2018-12-19T12:21:39.316Z,12.93
2018-12-19T12:24:07.542Z,14.20
2018-12-19T12:26:35.711Z,15.13
2018-12-19T12:29:03.892Z,14.07
2018-12-19T12:31:32.134Z,12.13
2018-12-19T12:34:00.323Z,13.10
2018-12-19T12:36:28.529Z,11.37
2018-12-19T12:38:56.720Z,12.13
2018-12-19T12:41:24.909Z,46.23
2018-12-19T12:43:53.119Z,16.30
2018-12-19T12:46:21.310Z,12.83
2018-12-19T12:48:49.516Z,17.07
2018-12-19T12:51:17.791Z,16.10
2018-12-19T12:53:52.411Z,16.70
2018-12-19T12:56:20.597Z,14.63
2018-12-19T12:58:48.971Z,11.20
2018-12-19T13:01:17.160Z,10.03
2018-12-19T13:03:45.378Z,8.23
2018-12-19T13:06:13.604Z,9.17
2018-12-19T13:08:41.788Z,8.93
2018-12-19T13:11:09.969Z,7.60
2018-12-19T13:13:38.160Z,7.80
2018-12-19T13:16:06.338Z,7.63
2018-12-19T13:18:34.547Z,14.03
2018-12-19T13:21:02.831Z,9.03
2018-12-19T13:23:31.020Z,8.90
2018-12-19T13:25:59.283Z,7.97
2018-12-19T13:28:27.528Z,8.30
2018-12-19T13:30:55.704Z,9.30
2018-12-19T13:33:23.964Z,8.77
2018-12-19T13:35:52.153Z,7.80
2018-12-19T13:38:20.368Z,8.73
2018-12-19T13:40:48.549Z,6.83
2018-12-19T13:43:16.858Z,8.20
2018-12-19T13:45:45.074Z,7.47
2018-12-19T13:48:13.006Z,8.67
2018-12-19T13:50:40.938Z,8.70
2018-12-19T13:53:09.139Z,9.00
2018-12-19T13:55:37.310Z,8.57
2018-12-19T13:58:07.188Z,8.60
2018-12-19T14:00:35.693Z,7.63
2018-12-19T14:03:03.914Z,8.90
2018-12-19T14:05:32.232Z,9.20
2018-12-19T14:08:00.420Z,14.10
2018-12-19T14:10:28.646Z,16.80
2018-12-19T14:12:56.947Z,16.53
2018-12-19T14:15:25.123Z,20.30
2018-12-19T14:17:53.309Z,15.70
2018-12-19T14:20:21.523Z,14.30
2018-12-19T14:22:49.743Z,12.60
2018-12-19T14:25:17.946Z,13.33
2018-12-19T14:27:46.139Z,16.30
2018-12-19T14:30:14.318Z,17.60
2018-12-19T14:32:42.500Z,18.83
2018-12-19T14:35:10.774Z,20.20
2018-12-19T14:37:38.958Z,20.80
2018-12-19T14:40:07.281Z,14.33
2018-12-19T14:42:35.455Z,10.70
2018-12-19T14:45:03.813Z,16.20
2018-12-19T14:47:32.083Z,22.90
2018-12-19T14:50:00.121Z,18.73
2018-12-19T14:52:28.439Z,14.50
2018-12-19T14:54:56.389Z,15.07
2018-12-19T14:57:24.639Z,15.97
2018-12-19T14:59:52.814Z,18.90
2018-12-19T15:02:20.998Z,18.50
2018-12-19T15:04:49.195Z,15.50
2018-12-19T15:07:17.435Z,13.50
2018-12-19T15:09:45.652Z,12.57
2018-12-19T15:12:13.947Z,13.73
2018-12-19T15:14:42.206Z,12.90
2018-12-19T15:17:13.865Z,14.30
2018-12-19T15:19:40.650Z,18.90
2018-12-19T15:22:08.912Z,13.90
2018-12-19T15:24:37.164Z,14.60
2018-12-19T15:27:05.364Z,15.07
2018-12-19T15:29:33.546Z,14.20
2018-12-19T15:32:01.730Z,14.63
2018-12-19T15:34:29.977Z,15.07
2018-12-19T15:36:58.195Z,13.97
2018-12-19T15:39:26.410Z,13.80
2018-12-19T15:41:54.584Z,10.40
2018-12-19T15:44:22.811Z,12.60
2018-12-19T15:46:50.740Z,13.53
2018-12-19T15:49:18.763Z,13.43
2018-12-19T15:51:46.991Z,14.37
2018-12-19T15:54:15.218Z,14.13
2018-12-19T15:56:43.405Z,13.77
2018-12-19T15:59:11.650Z,13.47
2018-12-19T16:01:39.880Z,15.60
2018-12-19T16:04:08.083Z,16.60
2018-12-19T16:06:36.280Z,17.40
2018-12-19T16:09:05.560Z,16.30
2018-12-19T16:11:33.753Z,15.17
2018-12-19T16:14:02.664Z,16.60
2018-12-19T16:16:30.840Z,16.70
2018-12-19T16:18:59.028Z,18.67
2018-12-19T16:21:27.283Z,24.57
2018-12-19T16:23:55.520Z,20.50
2018-12-19T16:26:23.778Z,21.13
2018-12-19T16:28:51.950Z,38.90
2018-12-19T16:31:20.243Z,37.23
2018-12-19T16:33:48.420Z,35.60
2018-12-19T16:36:16.605Z,45.70
2018-12-19T16:38:44.851Z,44.27
2018-12-19T16:41:13.075Z,45.00
2018-12-19T16:43:41.375Z,38.33
2018-12-19T16:46:09.551Z,30.90
2018-12-19T16:48:37.486Z,26.03
2018-12-19T16:51:05.713Z,25.13
2018-12-19T16:53:33.739Z,26.47
2018-12-19T16:56:02.003Z,25.87
2018-12-19T16:58:30.230Z,25.03
2018-12-19T17:00:58.420Z,24.70
2018-12-19T17:03:26.678Z,21.47
2018-12-19T17:05:54.942Z,21.40
2018-12-19T17:08:23.273Z,21.63
2018-12-19T17:10:51.490Z,26.97
2018-12-19T17:13:19.747Z,27.87
2018-12-19T17:15:47.923Z,27.50
2018-12-19T17:18:16.129Z,30.43
2018-12-19T17:20:44.320Z,29.43
2018-12-19T17:23:12.575Z,35.47
2018-12-19T17:25:40.862Z,31.47
2018-12-19T17:28:09.038Z,28.90
2018-12-19T17:30:37.382Z,31.97
2018-12-19T17:33:05.578Z,33.23
2018-12-19T17:35:33.807Z,30.33
2018-12-19T17:38:02.027Z,29.10
2018-12-19T17:40:30.360Z,32.23
2018-12-19T17:42:59.554Z,27.23
2018-12-19T17:45:28.098Z,26.53
2018-12-19T17:47:56.090Z,28.12
2018-12-19T17:50:24.040Z,27.93
2018-12-19T17:52:52.239Z,27.83
2018-12-19T17:55:20.445Z,37.43
2018-12-19T17:57:48.644Z,32.50
2018-12-19T18:00:16.973Z,34.92
2018-12-19T18:02:45.157Z,37.03
2018-12-19T18:05:13.357Z,41.73
2018-12-19T18:07:41.552Z,27.50
2018-12-19T18:10:09.820Z,26.97
2018-12-19T18:12:38.012Z,28.75
2018-12-19T18:15:06.258Z,26.97
2018-12-19T18:17:34.440Z,29.10
2018-12-19T18:20:02.759Z,28.55
2018-12-19T18:22:30.956Z,30.27
2018-12-19T18:24:59.218Z,29.05
2018-12-19T18:27:27.462Z,40.00
2018-12-19T18:29:55.744Z,50.75
2018-12-19T18:32:23.987Z,52.80
2018-12-19T18:34:52.175Z,45.98
2018-12-19T18:37:20.462Z,36.85
2018-12-19T18:39:48.841Z,33.60
2018-12-19T18:42:17.134Z,42.38
2018-12-19T18:44:46.424Z,37.10
2018-12-19T18:47:14.674Z,35.85
2018-12-19T18:49:49.191Z,58.65
2018-12-19T18:52:17.390Z,70.15
2018-12-19T18:54:45.580Z,31.75
2018-12-19T18:57:13.607Z,28.90
2018-12-19T18:59:41.885Z,28.85
2018-12-19T19:02:10.217Z,32.33
2018-12-19T19:04:38.472Z,31.02
2018-12-19T19:07:06.851Z,33.50
2018-12-19T19:09:35.234Z,32.70
2018-12-19T19:12:03.539Z,32.00
2018-12-19T19:17:06.367Z,35.35
2018-12-19T19:19:34.676Z,43.33
2018-12-19T19:22:02.878Z,29.80
2018-12-19T19:24:31.060Z,35.43
2018-12-19T19:26:59.330Z,37.70
2018-12-19T19:29:27.695Z,46.85
2018-12-19T19:31:55.895Z,48.13
2018-12-19T19:34:25.175Z,43.58
2018-12-19T19:39:28.201Z,42.40
2018-12-19T19:41:56.415Z,50.23
2018-12-19T19:44:24.708Z,53.65
2018-12-19T19:46:52.998Z,58.42
2018-12-19T19:49:21.171Z,54.33
2018-12-19T19:51:49.446Z,27.22
2018-12-19T19:54:17.695Z,26.97
2018-12-19T19:56:45.650Z,38.10
2018-12-19T19:59:13.674Z,40.50
2018-12-19T20:01:41.742Z,33.63
2018-12-19T20:04:10.038Z,31.90
2018-12-19T20:06:38.235Z,40.05
2018-12-19T20:09:08.340Z,39.63
2018-12-19T20:11:36.548Z,36.60
2018-12-19T20:14:04.846Z,33.95
2018-12-19T20:16:37.347Z,32.80
2018-12-19T20:19:05.578Z,32.45
2018-12-19T20:21:33.898Z,24.50
2018-12-19T20:24:02.162Z,29.77
2018-12-19T20:26:30.413Z,29.32
2018-12-19T20:28:58.608Z,24.45
2018-12-19T20:31:26.879Z,23.62
2018-12-19T20:33:55.157Z,25.95
2018-12-19T20:36:23.463Z,26.17
2018-12-19T20:38:51.717Z,30.97
2018-12-19T20:41:19.895Z,29.55
2018-12-19T20:43:48.109Z,31.10
2018-12-19T20:46:16.400Z,31.05
2018-12-19T20:48:44.722Z,29.70
2018-12-19T20:51:12.986Z,24.00
2018-12-19T20:53:41.225Z,22.20
2018-12-19T20:56:09.572Z,23.00
2018-12-19T20:58:37.609Z,24.02
2018-12-19T21:01:05.981Z,25.97
2018-12-19T21:03:34.239Z,27.00
2018-12-19T21:06:02.448Z,36.10
2018-12-19T21:08:30.663Z,24.53
2018-12-19T21:10:58.855Z,20.50
2018-12-19T21:13:27.124Z,13.75
2018-12-19T21:15:55.407Z,12.60
2018-12-19T21:18:28.996Z,8.70
2018-12-19T21:20:57.345Z,8.90
2018-12-19T21:23:25.515Z,9.17
2018-12-19T21:25:53.700Z,8.57
2018-12-19T21:28:21.880Z,8.20
2018-12-19T21:30:50.097Z,7.20
2018-12-19T21:33:18.406Z,8.77
2018-12-19T21:35:46.648Z,8.00
2018-12-19T21:38:15.115Z,7.17
2018-12-19T21:40:43.323Z,10.50
2018-12-19T21:43:11.671Z,12.93
2018-12-19T21:45:39.938Z,16.10
2018-12-19T21:48:08.236Z,13.33
2018-12-19T21:50:36.230Z,16.07
2018-12-19T21:53:04.514Z,18.37
2018-12-19T21:55:33.568Z,18.30
2018-12-19T21:58:01.961Z,20.90
2018-12-19T22:00:36.848Z,17.40
2018-12-19T22:03:07.454Z,17.47
2018-12-19T22:05:38.213Z,17.03
2018-12-19T22:08:06.438Z,17.00
2018-12-19T22:10:34.817Z,15.80
2018-12-19T22:13:03.506Z,16.30
2018-12-19T22:15:31.832Z,11.77
2018-12-19T22:18:05.417Z,12.23
2018-12-19T22:20:40.422Z,9.40
2018-12-19T22:23:08.923Z,8.67
2018-12-19T22:25:37.329Z,12.70
2018-12-19T22:28:05.689Z,13.17
2018-12-19T22:30:34.043Z,12.77
2018-12-19T22:33:02.424Z,11.05
2018-12-19T22:35:30.794Z,13.23
2018-12-19T22:37:59.130Z,16.50
2018-12-19T22:40:27.436Z,16.33
2018-12-19T22:42:56.134Z,15.68
2018-12-19T22:45:24.396Z,15.10
2018-12-19T22:47:52.753Z,14.07
2018-12-19T22:50:21.070Z,14.05
2018-12-19T22:52:49.324Z,16.07
2018-12-19T22:55:17.691Z,13.63
2018-12-19T22:57:45.857Z,13.28
2018-12-19T23:00:17.416Z,15.32
2018-12-19T23:02:51.658Z,13.58
2018-12-19T23:05:25.489Z,12.30
2018-12-19T23:07:53.857Z,11.70
2018-12-19T23:10:22.285Z,73.87
2018-12-19T23:12:50.722Z,62.83
2018-12-19T23:15:20.067Z,52.40
2018-12-19T23:17:48.455Z,51.55
2018-12-19T23:20:16.894Z,42.73
2018-12-19T23:22:45.169Z,40.90
2018-12-19T23:25:13.719Z,25.72
2018-12-19T23:27:42.073Z,26.80
2018-12-19T23:30:10.626Z,19.12
2018-12-19T23:32:39.229Z,14.23
2018-12-19T23:35:07.993Z,12.88
2018-12-19T23:37:36.477Z,15.98
2018-12-19T23:40:05.238Z,22.15
2018-12-19T23:42:33.807Z,21.70
2018-12-19T23:45:02.279Z,19.13
2018-12-19T23:47:30.705Z,16.63
2018-12-19T23:49:59.179Z,13.50
2018-12-19T23:52:27.602Z,10.60
2018-12-19T23:54:56.052Z,12.30
2018-12-19T23:57:24.153Z,11.00
2018-12-19T23:59:52.393Z,10.45
